sensor_id;sensor_type;location;lat;lon;timestamp;temperature;humidity
6865;DHT22;3471;49.678;8.388;2023-04-03T00:01:29;6.80;99.90
6865;DHT22;3471;49.678;8.388;2023-04-03T00:03:54;6.80;99.90
6865;DHT22;3471;49.678;8.388;2023-04-03T00:06:21;6.80;99.90
6865;DHT22;3471;49.678;8.388;2023-04-03T00:08:46;6.80;99.90
6865;DHT22;3471;49.678;8.388;2023-04-03T00:11:12;6.80;99.90
6865;DHT22;3471;49.678;8.388;2023-04-03T00:13:38;6.80;99.90
6865;DHT22;3471;49.678;8.388;2023-04-03T00:16:05;6.80;99.90
6865;DHT22;3471;49.678;8.388;2023-04-03T00:18:31;6.80;99.90
6865;DHT22;3471;49.678;8.388;2023-04-03T00:20:56;6.70;99.90
6865;DHT22;3471;49.678;8.388;2023-04-03T00:23:22;6.70;99.90
6865;DHT22;3471;49.678;8.388;2023-04-03T00:25:50;6.60;99.90
6865;DHT22;3471;49.678;8.388;2023-04-03T00:28:15;6.60;99.90
6865;DHT22;3471;49.678;8.388;2023-04-03T00:30:41;6.50;99.90
6865;DHT22;3471;49.678;8.388;2023-04-03T00:33:07;6.50;99.90
6865;DHT22;3471;49.678;8.388;2023-04-03T00:35:34;6.50;99.90
6865;DHT22;3471;49.678;8.388;2023-04-03T00:37:59;6.40;99.90
6865;DHT22;3471;49.678;8.388;2023-04-03T00:40:26;6.40;99.90
6865;DHT22;3471;49.678;8.388;2023-04-03T00:42:56;6.40;99.90
6865;DHT22;3471;49.678;8.388;2023-04-03T00:45:37;6.30;99.90
6865;DHT22;3471;49.678;8.388;2023-04-03T00:48:07;6.30;99.90
6865;DHT22;3471;49.678;8.388;2023-04-03T00:50:36;6.20;99.90
6865;DHT22;3471;49.678;8.388;2023-04-03T00:53:04;6.20;99.90
6865;DHT22;3471;49.678;8.388;2023-04-03T00:55:30;6.20;99.90
6865;DHT22;3471;49.678;8.388;2023-04-03T00:57:56;6.20;99.90
6865;DHT22;3471;49.678;8.388;2023-04-03T01:00:23;6.10;99.90
6865;DHT22;3471;49.678;8.388;2023-04-03T01:02:50;6.20;99.90
6865;DHT22;3471;49.678;8.388;2023-04-03T01:05:17;6.10;99.90
6865;DHT22;3471;49.678;8.388;2023-04-03T01:07:43;6.10;99.90
6865;DHT22;3471;49.678;8.388;2023-04-03T01:10:11;6.10;99.90
6865;DHT22;3471;49.678;8.388;2023-04-03T01:12:41;6.00;99.90
6865;DHT22;3471;49.678;8.388;2023-04-03T01:15:11;6.00;99.90
6865;DHT22;3471;49.678;8.388;2023-04-03T01:17:40;6.00;99.90
6865;DHT22;3471;49.678;8.388;2023-04-03T01:20:36;6.00;99.90
6865;DHT22;3471;49.678;8.388;2023-04-03T01:25:56;5.90;99.90
6865;DHT22;3471;49.678;8.388;2023-04-03T01:28:28;5.90;99.90
6865;DHT22;3471;49.678;8.388;2023-04-03T01:31:13;5.90;99.90
6865;DHT22;3471;49.678;8.388;2023-04-03T01:33:41;5.90;99.90
6865;DHT22;3471;49.678;8.388;2023-04-03T01:36:08;5.80;99.90
6865;DHT22;3471;49.678;8.388;2023-04-03T01:38:34;5.80;99.90
6865;DHT22;3471;49.678;8.388;2023-04-03T01:40:59;5.80;99.90
6865;DHT22;3471;49.678;8.388;2023-04-03T01:43:25;5.80;99.90
6865;DHT22;3471;49.678;8.388;2023-04-03T01:45:51;5.80;99.90
6865;DHT22;3471;49.678;8.388;2023-04-03T01:48:18;5.70;99.90
6865;DHT22;3471;49.678;8.388;2023-04-03T01:50:43;5.70;99.90
6865;DHT22;3471;49.678;8.388;2023-04-03T01:53:10;5.70;99.90
6865;DHT22;3471;49.678;8.388;2023-04-03T01:55:35;5.70;99.90
6865;DHT22;3471;49.678;8.388;2023-04-03T01:58:01;5.70;99.90
6865;DHT22;3471;49.678;8.388;2023-04-03T02:00:26;5.70;99.90
6865;DHT22;3471;49.678;8.388;2023-04-03T02:02:52;5.60;99.90
6865;DHT22;3471;49.678;8.388;2023-04-03T02:05:18;5.60;99.90
6865;DHT22;3471;49.678;8.388;2023-04-03T02:07:44;5.60;99.90
6865;DHT22;3471;49.678;8.388;2023-04-03T02:10:10;5.60;99.90
6865;DHT22;3471;49.678;8.388;2023-04-03T02:12:35;5.60;99.90
6865;DHT22;3471;49.678;8.388;2023-04-03T02:15:01;5.60;99.90
6865;DHT22;3471;49.678;8.388;2023-04-03T02:17:27;5.50;99.90
6865;DHT22;3471;49.678;8.388;2023-04-03T02:19:52;5.50;99.90
6865;DHT22;3471;49.678;8.388;2023-04-03T02:22:18;5.50;99.90
6865;DHT22;3471;49.678;8.388;2023-04-03T02:24:44;5.50;99.90
6865;DHT22;3471;49.678;8.388;2023-04-03T02:27:10;5.50;99.90
6865;DHT22;3471;49.678;8.388;2023-04-03T02:29:35;5.50;99.90
6865;DHT22;3471;49.678;8.388;2023-04-03T02:32:01;5.50;99.90
6865;DHT22;3471;49.678;8.388;2023-04-03T02:34:26;5.50;99.90
6865;DHT22;3471;49.678;8.388;2023-04-03T02:36:52;5.40;99.90
6865;DHT22;3471;49.678;8.388;2023-04-03T02:39:18;5.50;99.90
6865;DHT22;3471;49.678;8.388;2023-04-03T02:41:43;5.50;99.90
6865;DHT22;3471;49.678;8.388;2023-04-03T02:44:10;5.40;99.90
6865;DHT22;3471;49.678;8.388;2023-04-03T02:46:36;5.40;99.90
6865;DHT22;3471;49.678;8.388;2023-04-03T02:49:02;5.40;99.90
6865;DHT22;3471;49.678;8.388;2023-04-03T02:51:27;5.40;99.90
6865;DHT22;3471;49.678;8.388;2023-04-03T02:53:53;5.40;99.90
6865;DHT22;3471;49.678;8.388;2023-04-03T02:56:19;5.30;99.90
6865;DHT22;3471;49.678;8.388;2023-04-03T02:58:45;5.40;99.90
6865;DHT22;3471;49.678;8.388;2023-04-03T03:01:11;5.40;99.90
6865;DHT22;3471;49.678;8.388;2023-04-03T03:03:37;5.30;99.90
6865;DHT22;3471;49.678;8.388;2023-04-03T03:06:11;5.40;99.90
6865;DHT22;3471;49.678;8.388;2023-04-03T03:08:37;5.30;99.90
6865;DHT22;3471;49.678;8.388;2023-04-03T03:11:04;5.30;99.90
6865;DHT22;3471;49.678;8.388;2023-04-03T03:13:30;5.30;99.90
6865;DHT22;3471;49.678;8.388;2023-04-03T03:15:56;5.30;99.90
6865;DHT22;3471;49.678;8.388;2023-04-03T03:18:21;5.30;99.90
6865;DHT22;3471;49.678;8.388;2023-04-03T03:20:57;5.30;99.90
6865;DHT22;3471;49.678;8.388;2023-04-03T03:23:25;5.30;99.90
6865;DHT22;3471;49.678;8.388;2023-04-03T03:26:09;5.30;99.90
6865;DHT22;3471;49.678;8.388;2023-04-03T03:28:36;5.30;99.90
6865;DHT22;3471;49.678;8.388;2023-04-03T03:31:02;5.30;99.90
6865;DHT22;3471;49.678;8.388;2023-04-03T03:33:28;5.30;99.90
6865;DHT22;3471;49.678;8.388;2023-04-03T03:35:54;5.20;99.90
6865;DHT22;3471;49.678;8.388;2023-04-03T03:38:20;5.20;99.90
6865;DHT22;3471;49.678;8.388;2023-04-03T03:40:50;5.20;99.90
6865;DHT22;3471;49.678;8.388;2023-04-03T03:43:16;5.20;99.90
6865;DHT22;3471;49.678;8.388;2023-04-03T03:45:42;5.20;99.90
6865;DHT22;3471;49.678;8.388;2023-04-03T03:48:08;5.10;99.90
6865;DHT22;3471;49.678;8.388;2023-04-03T03:50:34;5.10;99.90
6865;DHT22;3471;49.678;8.388;2023-04-03T03:53:00;5.10;99.90
6865;DHT22;3471;49.678;8.388;2023-04-03T03:55:26;5.10;99.90
6865;DHT22;3471;49.678;8.388;2023-04-03T03:57:52;5.10;99.90
6865;DHT22;3471;49.678;8.388;2023-04-03T04:00:18;5.10;99.90
6865;DHT22;3471;49.678;8.388;2023-04-03T04:02:43;5.00;99.90
6865;DHT22;3471;49.678;8.388;2023-04-03T04:05:10;5.10;99.90
6865;DHT22;3471;49.678;8.388;2023-04-03T04:07:35;5.00;99.90
6865;DHT22;3471;49.678;8.388;2023-04-03T04:10:01;5.10;99.90
6865;DHT22;3471;49.678;8.388;2023-04-03T04:12:26;5.00;99.90
6865;DHT22;3471;49.678;8.388;2023-04-03T04:14:52;5.00;99.90
6865;DHT22;3471;49.678;8.388;2023-04-03T04:17:18;5.00;99.90
6865;DHT22;3471;49.678;8.388;2023-04-03T04:19:45;5.00;99.90
6865;DHT22;3471;49.678;8.388;2023-04-03T04:22:10;5.00;99.90
6865;DHT22;3471;49.678;8.388;2023-04-03T04:24:36;4.90;99.90
6865;DHT22;3471;49.678;8.388;2023-04-03T04:27:01;4.90;99.90
6865;DHT22;3471;49.678;8.388;2023-04-03T04:29:27;4.90;99.90
6865;DHT22;3471;49.678;8.388;2023-04-03T04:31:53;4.90;99.90
6865;DHT22;3471;49.678;8.388;2023-04-03T04:34:18;4.90;99.90
6865;DHT22;3471;49.678;8.388;2023-04-03T04:36:44;4.90;99.90
6865;DHT22;3471;49.678;8.388;2023-04-03T04:39:09;4.80;99.90
6865;DHT22;3471;49.678;8.388;2023-04-03T04:41:35;4.80;99.90
6865;DHT22;3471;49.678;8.388;2023-04-03T04:44:01;4.80;99.90
6865;DHT22;3471;49.678;8.388;2023-04-03T04:46:26;4.70;99.90
6865;DHT22;3471;49.678;8.388;2023-04-03T04:48:52;4.80;99.90
6865;DHT22;3471;49.678;8.388;2023-04-03T04:51:18;4.70;99.90
6865;DHT22;3471;49.678;8.388;2023-04-03T04:53:43;4.70;99.90
6865;DHT22;3471;49.678;8.388;2023-04-03T04:56:09;4.70;99.90
6865;DHT22;3471;49.678;8.388;2023-04-03T04:58:35;4.70;99.90
6865;DHT22;3471;49.678;8.388;2023-04-03T05:01:08;4.70;99.90
6865;DHT22;3471;49.678;8.388;2023-04-03T05:03:34;4.70;99.90
6865;DHT22;3471;49.678;8.388;2023-04-03T05:06:00;4.60;99.90
6865;DHT22;3471;49.678;8.388;2023-04-03T05:08:26;4.60;99.90
6865;DHT22;3471;49.678;8.388;2023-04-03T05:10:52;4.60;99.90
6865;DHT22;3471;49.678;8.388;2023-04-03T05:13:18;4.60;99.90
6865;DHT22;3471;49.678;8.388;2023-04-03T05:15:44;4.60;99.90
6865;DHT22;3471;49.678;8.388;2023-04-03T05:18:10;4.50;99.90
6865;DHT22;3471;49.678;8.388;2023-04-03T05:20:36;4.50;99.90
6865;DHT22;3471;49.678;8.388;2023-04-03T05:23:02;4.60;99.90
6865;DHT22;3471;49.678;8.388;2023-04-03T05:25:28;4.60;99.90
6865;DHT22;3471;49.678;8.388;2023-04-03T05:27:55;4.60;99.90
6865;DHT22;3471;49.678;8.388;2023-04-03T05:30:20;4.60;99.90
6865;DHT22;3471;49.678;8.388;2023-04-03T05:32:46;4.60;99.90
6865;DHT22;3471;49.678;8.388;2023-04-03T05:35:11;4.60;99.90
6865;DHT22;3471;49.678;8.388;2023-04-03T05:37:37;4.60;99.90
6865;DHT22;3471;49.678;8.388;2023-04-03T05:40:04;4.70;99.90
6865;DHT22;3471;49.678;8.388;2023-04-03T05:42:30;4.70;99.90
6865;DHT22;3471;49.678;8.388;2023-04-03T05:44:55;4.80;99.90
6865;DHT22;3471;49.678;8.388;2023-04-03T05:47:21;4.80;99.90
6865;DHT22;3471;49.678;8.388;2023-04-03T05:49:46;4.90;99.90
6865;DHT22;3471;49.678;8.388;2023-04-03T05:52:26;5.00;99.90
6865;DHT22;3471;49.678;8.388;2023-04-03T05:54:53;5.10;99.90
6865;DHT22;3471;49.678;8.388;2023-04-03T05:57:19;5.20;99.90
6865;DHT22;3471;49.678;8.388;2023-04-03T05:59:45;5.30;99.90
6865;DHT22;3471;49.678;8.388;2023-04-03T06:02:13;5.40;99.90
6865;DHT22;3471;49.678;8.388;2023-04-03T06:04:39;5.50;99.90
6865;DHT22;3471;49.678;8.388;2023-04-03T06:07:05;5.60;99.90
6865;DHT22;3471;49.678;8.388;2023-04-03T06:09:33;5.70;99.90
6865;DHT22;3471;49.678;8.388;2023-04-03T06:11:59;5.80;99.90
6865;DHT22;3471;49.678;8.388;2023-04-03T06:14:25;5.90;99.90
6865;DHT22;3471;49.678;8.388;2023-04-03T06:16:51;6.00;99.90
6865;DHT22;3471;49.678;8.388;2023-04-03T06:19:17;6.10;99.90
6865;DHT22;3471;49.678;8.388;2023-04-03T06:21:42;6.20;99.90
6865;DHT22;3471;49.678;8.388;2023-04-03T06:24:09;6.20;99.90
6865;DHT22;3471;49.678;8.388;2023-04-03T06:26:34;6.30;99.90
6865;DHT22;3471;49.678;8.388;2023-04-03T06:29:00;6.40;99.90
6865;DHT22;3471;49.678;8.388;2023-04-03T06:31:26;6.40;99.90
6865;DHT22;3471;49.678;8.388;2023-04-03T06:33:52;6.50;99.90
6865;DHT22;3471;49.678;8.388;2023-04-03T06:36:19;6.50;99.90
6865;DHT22;3471;49.678;8.388;2023-04-03T06:38:46;6.50;99.90
6865;DHT22;3471;49.678;8.388;2023-04-03T06:41:12;6.60;99.90
6865;DHT22;3471;49.678;8.388;2023-04-03T06:43:37;6.60;99.90
6865;DHT22;3471;49.678;8.388;2023-04-03T06:46:03;6.60;99.90
6865;DHT22;3471;49.678;8.388;2023-04-03T06:48:29;6.70;99.90
6865;DHT22;3471;49.678;8.388;2023-04-03T06:50:55;6.70;99.90
6865;DHT22;3471;49.678;8.388;2023-04-03T06:53:21;6.70;99.90
6865;DHT22;3471;49.678;8.388;2023-04-03T06:55:47;6.80;99.90
6865;DHT22;3471;49.678;8.388;2023-04-03T06:58:13;6.80;99.90
6865;DHT22;3471;49.678;8.388;2023-04-03T07:00:41;6.90;99.90
6865;DHT22;3471;49.678;8.388;2023-04-03T07:03:06;7.00;99.90
6865;DHT22;3471;49.678;8.388;2023-04-03T07:05:32;7.00;99.90
6865;DHT22;3471;49.678;8.388;2023-04-03T07:07:57;6.90;99.90
6865;DHT22;3471;49.678;8.388;2023-04-03T07:10:23;6.80;99.90
6865;DHT22;3471;49.678;8.388;2023-04-03T07:12:49;6.70;99.90
6865;DHT22;3471;49.678;8.388;2023-04-03T07:15:15;6.60;99.90
6865;DHT22;3471;49.678;8.388;2023-04-03T07:17:40;6.60;99.90
6865;DHT22;3471;49.678;8.388;2023-04-03T07:20:07;6.50;99.90
6865;DHT22;3471;49.678;8.388;2023-04-03T07:22:33;6.60;99.90
6865;DHT22;3471;49.678;8.388;2023-04-03T07:24:59;6.70;99.90
6865;DHT22;3471;49.678;8.388;2023-04-03T07:27:25;6.70;99.90
6865;DHT22;3471;49.678;8.388;2023-04-03T07:29:51;6.80;99.90
6865;DHT22;3471;49.678;8.388;2023-04-03T07:32:16;6.90;99.90
6865;DHT22;3471;49.678;8.388;2023-04-03T07:34:43;7.00;99.90
6865;DHT22;3471;49.678;8.388;2023-04-03T07:37:09;7.10;99.90
6865;DHT22;3471;49.678;8.388;2023-04-03T07:39:35;7.20;99.90
6865;DHT22;3471;49.678;8.388;2023-04-03T07:42:01;7.30;99.90
6865;DHT22;3471;49.678;8.388;2023-04-03T07:44:27;7.40;99.90
6865;DHT22;3471;49.678;8.388;2023-04-03T07:46:53;7.40;99.90
6865;DHT22;3471;49.678;8.388;2023-04-03T07:49:20;7.60;99.90
6865;DHT22;3471;49.678;8.388;2023-04-03T07:51:48;7.70;99.90
6865;DHT22;3471;49.678;8.388;2023-04-03T07:54:14;7.90;99.90
6865;DHT22;3471;49.678;8.388;2023-04-03T07:56:40;8.00;99.90
6865;DHT22;3471;49.678;8.388;2023-04-03T07:59:08;8.10;99.90
6865;DHT22;3471;49.678;8.388;2023-04-03T08:01:34;8.20;99.90
6865;DHT22;3471;49.678;8.388;2023-04-03T08:03:59;8.30;99.90
6865;DHT22;3471;49.678;8.388;2023-04-03T08:06:25;8.40;99.90
6865;DHT22;3471;49.678;8.388;2023-04-03T08:08:51;8.50;99.90
6865;DHT22;3471;49.678;8.388;2023-04-03T08:11:17;8.60;99.90
6865;DHT22;3471;49.678;8.388;2023-04-03T08:13:44;8.70;99.90
6865;DHT22;3471;49.678;8.388;2023-04-03T08:16:17;8.80;99.90
6865;DHT22;3471;49.678;8.388;2023-04-03T08:18:43;8.90;99.90
6865;DHT22;3471;49.678;8.388;2023-04-03T08:21:10;9.10;99.90
6865;DHT22;3471;49.678;8.388;2023-04-03T08:23:37;9.20;99.90
6865;DHT22;3471;49.678;8.388;2023-04-03T08:26:08;9.30;99.90
6865;DHT22;3471;49.678;8.388;2023-04-03T08:28:33;9.40;99.90
6865;DHT22;3471;49.678;8.388;2023-04-03T08:31:03;9.60;99.90
6865;DHT22;3471;49.678;8.388;2023-04-03T08:33:31;9.70;99.90
6865;DHT22;3471;49.678;8.388;2023-04-03T08:35:56;9.80;99.90
6865;DHT22;3471;49.678;8.388;2023-04-03T08:38:22;9.80;99.90
6865;DHT22;3471;49.678;8.388;2023-04-03T08:40:48;10.00;99.90
6865;DHT22;3471;49.678;8.388;2023-04-03T08:43:36;10.10;99.90
6865;DHT22;3471;49.678;8.388;2023-04-03T08:46:05;10.20;99.90
6865;DHT22;3471;49.678;8.388;2023-04-03T08:48:41;10.30;99.90
6865;DHT22;3471;49.678;8.388;2023-04-03T08:51:14;10.30;99.90
6865;DHT22;3471;49.678;8.388;2023-04-03T08:53:54;10.50;99.90
6865;DHT22;3471;49.678;8.388;2023-04-03T08:56:22;10.60;99.90
6865;DHT22;3471;49.678;8.388;2023-04-03T08:58:57;10.60;99.90
6865;DHT22;3471;49.678;8.388;2023-04-03T09:01:27;10.80;99.90
6865;DHT22;3471;49.678;8.388;2023-04-03T09:03:54;10.80;99.90
6865;DHT22;3471;49.678;8.388;2023-04-03T09:06:23;10.90;99.90
6865;DHT22;3471;49.678;8.388;2023-04-03T09:16:52;11.50;99.90
6865;DHT22;3471;49.678;8.388;2023-04-03T09:22:00;11.50;99.90
6865;DHT22;3471;49.678;8.388;2023-04-03T09:24:26;11.50;99.90
6865;DHT22;3471;49.678;8.388;2023-04-03T09:27:01;11.40;99.90
6865;DHT22;3471;49.678;8.388;2023-04-03T09:29:29;11.20;99.90
6865;DHT22;3471;49.678;8.388;2023-04-03T09:32:02;11.00;99.90
6865;DHT22;3471;49.678;8.388;2023-04-03T09:34:38;10.90;99.90
6865;DHT22;3471;49.678;8.388;2023-04-03T09:37:06;10.70;99.90
6865;DHT22;3471;49.678;8.388;2023-04-03T09:39:48;10.70;99.90
6865;DHT22;3471;49.678;8.388;2023-04-03T09:42:23;10.70;99.90
6865;DHT22;3471;49.678;8.388;2023-04-03T09:45:00;10.80;99.90
6865;DHT22;3471;49.678;8.388;2023-04-03T09:47:32;10.90;99.90
6865;DHT22;3471;49.678;8.388;2023-04-03T09:52:43;11.00;99.90
6865;DHT22;3471;49.678;8.388;2023-04-03T09:55:20;11.10;99.90
6865;DHT22;3471;49.678;8.388;2023-04-03T09:57:53;11.40;99.90
6865;DHT22;3471;49.678;8.388;2023-04-03T10:00:28;11.40;99.90
6865;DHT22;3471;49.678;8.388;2023-04-03T10:02:57;11.40;99.90
6865;DHT22;3471;49.678;8.388;2023-04-03T10:05:36;11.30;99.90
6865;DHT22;3471;49.678;8.388;2023-04-03T10:11:04;11.10;99.90
6865;DHT22;3471;49.678;8.388;2023-04-03T10:13:26;11.10;99.90
6865;DHT22;3471;49.678;8.388;2023-04-03T10:15:59;11.20;99.90
6865;DHT22;3471;49.678;8.388;2023-04-03T10:18:55;11.20;99.90
6865;DHT22;3471;49.678;8.388;2023-04-03T10:21:27;11.20;99.90
6865;DHT22;3471;49.678;8.388;2023-04-03T10:24:10;11.20;99.90
6865;DHT22;3471;49.678;8.388;2023-04-03T10:32:43;11.60;99.90
6865;DHT22;3471;49.678;8.388;2023-04-03T10:38:20;11.70;99.90
6865;DHT22;3471;49.678;8.388;2023-04-03T10:47:20;12.10;99.00
6865;DHT22;3471;49.678;8.388;2023-04-03T10:53:11;12.10;99.90
6865;DHT22;3471;49.678;8.388;2023-04-03T10:56:09;12.00;99.90
6865;DHT22;3471;49.678;8.388;2023-04-03T10:58:42;12.30;99.90
6865;DHT22;3471;49.678;8.388;2023-04-03T11:01:11;12.60;99.90
6865;DHT22;3471;49.678;8.388;2023-04-03T11:03:44;12.70;99.90
6865;DHT22;3471;49.678;8.388;2023-04-03T11:06:12;12.90;99.90
6865;DHT22;3471;49.678;8.388;2023-04-03T11:08:45;13.00;99.80
6865;DHT22;3471;49.678;8.388;2023-04-03T11:11:15;13.00;99.80
6865;DHT22;3471;49.678;8.388;2023-04-03T11:13:52;13.10;99.80
6865;DHT22;3471;49.678;8.388;2023-04-03T11:16:33;13.10;99.90
6865;DHT22;3471;49.678;8.388;2023-04-03T11:21:44;13.10;99.90
6865;DHT22;3471;49.678;8.388;2023-04-03T11:24:24;13.30;99.90
6865;DHT22;3471;49.678;8.388;2023-04-03T11:26:51;13.60;99.90
6865;DHT22;3471;49.678;8.388;2023-04-03T11:29:22;14.00;99.90
6865;DHT22;3471;49.678;8.388;2023-04-03T11:34:42;14.80;99.90
6865;DHT22;3471;49.678;8.388;2023-04-03T11:39:54;14.90;97.60
6865;DHT22;3471;49.678;8.388;2023-04-03T11:42:38;14.60;97.20
6865;DHT22;3471;49.678;8.388;2023-04-03T11:45:33;14.20;95.20
6865;DHT22;3471;49.678;8.388;2023-04-03T11:50:47;13.80;99.40
6865;DHT22;3471;49.678;8.388;2023-04-03T11:58:26;13.60;99.60
6865;DHT22;3471;49.678;8.388;2023-04-03T12:19:35;14.20;96.60
6865;DHT22;3471;49.678;8.388;2023-04-03T12:24:34;13.60;97.30
6865;DHT22;3471;49.678;8.388;2023-04-03T12:35:37;13.30;98.80
6865;DHT22;3471;49.678;8.388;2023-04-03T12:41:27;14.20;98.40
6865;DHT22;3471;49.678;8.388;2023-04-03T12:46:42;14.40;98.80
6865;DHT22;3471;49.678;8.388;2023-04-03T12:49:26;14.30;96.00
6865;DHT22;3471;49.678;8.388;2023-04-03T12:51:56;14.00;97.20
6865;DHT22;3471;49.678;8.388;2023-04-03T12:54:27;13.80;97.40
6865;DHT22;3471;49.678;8.388;2023-04-03T12:57:19;13.80;97.40
6865;DHT22;3471;49.678;8.388;2023-04-03T12:59:45;13.70;96.50
6865;DHT22;3471;49.678;8.388;2023-04-03T13:02:43;13.70;96.20
6865;DHT22;3471;49.678;8.388;2023-04-03T13:05:16;13.80;98.00
6865;DHT22;3471;49.678;8.388;2023-04-03T13:07:42;13.90;99.30
6865;DHT22;3471;49.678;8.388;2023-04-03T13:12:51;15.00;99.90
6865;DHT22;3471;49.678;8.388;2023-04-03T13:17:48;17.40;96.90
6865;DHT22;3471;49.678;8.388;2023-04-03T13:22:55;19.40;91.90
6865;DHT22;3471;49.678;8.388;2023-04-03T13:25:23;19.80;87.80
6865;DHT22;3471;49.678;8.388;2023-04-03T13:27:49;19.80;90.70
6865;DHT22;3471;49.678;8.388;2023-04-03T13:32:51;18.90;82.40
6865;DHT22;3471;49.678;8.388;2023-04-03T13:38:00;17.30;82.20
6865;DHT22;3471;49.678;8.388;2023-04-03T13:40:25;17.00;92.70
6865;DHT22;3471;49.678;8.388;2023-04-03T13:43:24;17.20;90.90
6865;DHT22;3471;49.678;8.388;2023-04-03T13:46:00;17.50;84.60
6865;DHT22;3471;49.678;8.388;2023-04-03T13:48:27;17.70;82.70
6865;DHT22;3471;49.678;8.388;2023-04-03T13:53:55;17.20;87.50
6865;DHT22;3471;49.678;8.388;2023-04-03T13:56:33;17.00;84.50
6865;DHT22;3471;49.678;8.388;2023-04-03T13:59:06;16.50;79.40
6865;DHT22;3471;49.678;8.388;2023-04-03T14:02:33;16.00;81.70
6865;DHT22;3471;49.678;8.388;2023-04-03T14:07:02;16.50;90.80
6865;DHT22;3471;49.678;8.388;2023-04-03T14:09:29;17.50;91.70
6865;DHT22;3471;49.678;8.388;2023-04-03T14:12:02;18.40;80.20
6865;DHT22;3471;49.678;8.388;2023-04-03T14:14:32;18.50;79.10
6865;DHT22;3471;49.678;8.388;2023-04-03T14:17:01;18.60;81.60
6865;DHT22;3471;49.678;8.388;2023-04-03T14:19:33;19.10;80.60
6865;DHT22;3471;49.678;8.388;2023-04-03T14:22:06;19.80;88.00
6865;DHT22;3471;49.678;8.388;2023-04-03T14:24:32;20.60;79.70
6865;DHT22;3471;49.678;8.388;2023-04-03T14:26:58;21.30;75.00
6865;DHT22;3471;49.678;8.388;2023-04-03T14:29:24;22.00;80.10
6865;DHT22;3471;49.678;8.388;2023-04-03T14:31:50;22.50;72.50
6865;DHT22;3471;49.678;8.388;2023-04-03T14:34:16;22.90;74.10
6865;DHT22;3471;49.678;8.388;2023-04-03T14:36:43;23.20;72.90
6865;DHT22;3471;49.678;8.388;2023-04-03T14:39:16;23.40;71.00
6865;DHT22;3471;49.678;8.388;2023-04-03T14:41:43;23.60;72.20
6865;DHT22;3471;49.678;8.388;2023-04-03T14:44:09;23.90;72.50
6865;DHT22;3471;49.678;8.388;2023-04-03T14:46:38;24.00;74.80
6865;DHT22;3471;49.678;8.388;2023-04-03T14:49:14;23.90;70.70
6865;DHT22;3471;49.678;8.388;2023-04-03T14:51:40;24.10;63.90
6865;DHT22;3471;49.678;8.388;2023-04-03T14:54:13;24.20;71.70
6865;DHT22;3471;49.678;8.388;2023-04-03T14:56:43;24.30;64.20
6865;DHT22;3471;49.678;8.388;2023-04-03T14:59:12;24.40;68.80
6865;DHT22;3471;49.678;8.388;2023-04-03T15:01:38;24.50;66.00
6865;DHT22;3471;49.678;8.388;2023-04-03T15:04:20;24.60;63.30
6865;DHT22;3471;49.678;8.388;2023-04-03T15:06:47;24.80;64.40
6865;DHT22;3471;49.678;8.388;2023-04-03T15:09:24;24.80;60.50
6865;DHT22;3471;49.678;8.388;2023-04-03T15:11:52;24.70;58.00
6865;DHT22;3471;49.678;8.388;2023-04-03T15:14:18;24.50;59.00
6865;DHT22;3471;49.678;8.388;2023-04-03T15:16:44;24.40;59.80
6865;DHT22;3471;49.678;8.388;2023-04-03T15:19:10;24.40;61.00
6865;DHT22;3471;49.678;8.388;2023-04-03T15:21:37;24.30;60.80
6865;DHT22;3471;49.678;8.388;2023-04-03T15:24:03;24.20;61.50
6865;DHT22;3471;49.678;8.388;2023-04-03T15:26:29;24.10;65.00
6865;DHT22;3471;49.678;8.388;2023-04-03T15:28:54;24.10;59.50
6865;DHT22;3471;49.678;8.388;2023-04-03T15:31:20;24.10;62.90
6865;DHT22;3471;49.678;8.388;2023-04-03T15:33:46;24.00;66.70
6865;DHT22;3471;49.678;8.388;2023-04-03T15:36:11;23.90;59.60
6865;DHT22;3471;49.678;8.388;2023-04-03T15:38:37;23.80;61.50
6865;DHT22;3471;49.678;8.388;2023-04-03T15:41:04;23.70;62.30
6865;DHT22;3471;49.678;8.388;2023-04-03T15:43:30;23.50;55.00
6865;DHT22;3471;49.678;8.388;2023-04-03T15:45:58;23.20;57.90
6865;DHT22;3471;49.678;8.388;2023-04-03T15:48:25;23.10;61.80
6865;DHT22;3471;49.678;8.388;2023-04-03T15:50:51;22.50;56.10
6865;DHT22;3471;49.678;8.388;2023-04-03T15:53:16;21.80;58.50
6865;DHT22;3471;49.678;8.388;2023-04-03T15:55:42;21.00;63.90
6865;DHT22;3471;49.678;8.388;2023-04-03T15:58:08;20.30;62.80
6865;DHT22;3471;49.678;8.388;2023-04-03T16:00:35;20.00;62.00
6865;DHT22;3471;49.678;8.388;2023-04-03T16:03:12;19.90;61.30
6865;DHT22;3471;49.678;8.388;2023-04-03T16:05:40;19.90;67.10
6865;DHT22;3471;49.678;8.388;2023-04-03T16:08:06;19.90;63.70
6865;DHT22;3471;49.678;8.388;2023-04-03T16:10:34;19.80;59.20
6865;DHT22;3471;49.678;8.388;2023-04-03T16:12:59;19.50;61.80
6865;DHT22;3471;49.678;8.388;2023-04-03T16:15:25;19.20;60.30
6865;DHT22;3471;49.678;8.388;2023-04-03T16:17:52;18.50;61.20
6865;DHT22;3471;49.678;8.388;2023-04-03T16:20:18;17.70;64.60
6865;DHT22;3471;49.678;8.388;2023-04-03T16:22:44;17.10;61.80
6865;DHT22;3471;49.678;8.388;2023-04-03T16:25:10;16.40;65.80
6865;DHT22;3471;49.678;8.388;2023-04-03T16:27:37;15.80;64.50
6865;DHT22;3471;49.678;8.388;2023-04-03T16:30:03;15.30;69.20
6865;DHT22;3471;49.678;8.388;2023-04-03T16:32:30;14.70;65.00
6865;DHT22;3471;49.678;8.388;2023-04-03T16:34:57;14.30;65.70
6865;DHT22;3471;49.678;8.388;2023-04-03T16:37:23;13.80;66.70
6865;DHT22;3471;49.678;8.388;2023-04-03T16:39:49;13.40;64.90
6865;DHT22;3471;49.678;8.388;2023-04-03T16:42:14;13.00;73.00
6865;DHT22;3471;49.678;8.388;2023-04-03T16:44:41;12.70;68.40
6865;DHT22;3471;49.678;8.388;2023-04-03T16:47:06;12.40;68.80
6865;DHT22;3471;49.678;8.388;2023-04-03T16:49:33;12.10;72.60
6865;DHT22;3471;49.678;8.388;2023-04-03T16:52:00;12.00;71.20
6865;DHT22;3471;49.678;8.388;2023-04-03T16:54:26;11.70;74.50
6865;DHT22;3471;49.678;8.388;2023-04-03T16:56:51;11.60;75.30
6865;DHT22;3471;49.678;8.388;2023-04-03T16:59:17;11.40;77.20
6865;DHT22;3471;49.678;8.388;2023-04-03T17:01:43;11.30;76.40
6865;DHT22;3471;49.678;8.388;2023-04-03T17:04:08;11.20;76.10
6865;DHT22;3471;49.678;8.388;2023-04-03T17:06:34;11.00;80.00
6865;DHT22;3471;49.678;8.388;2023-04-03T17:09:00;10.90;83.90
6865;DHT22;3471;49.678;8.388;2023-04-03T17:11:27;10.80;78.40
6865;DHT22;3471;49.678;8.388;2023-04-03T17:13:53;10.80;75.50
6865;DHT22;3471;49.678;8.388;2023-04-03T17:16:18;10.60;76.40
6865;DHT22;3471;49.678;8.388;2023-04-03T17:18:44;10.50;76.70
6865;DHT22;3471;49.678;8.388;2023-04-03T17:21:11;10.30;78.10
6865;DHT22;3471;49.678;8.388;2023-04-03T17:23:38;10.20;79.50
6865;DHT22;3471;49.678;8.388;2023-04-03T17:26:05;10.10;84.50
6865;DHT22;3471;49.678;8.388;2023-04-03T17:28:30;10.10;80.40
6865;DHT22;3471;49.678;8.388;2023-04-03T17:30:58;10.00;86.50
6865;DHT22;3471;49.678;8.388;2023-04-03T17:33:25;9.90;85.70
6865;DHT22;3471;49.678;8.388;2023-04-03T17:35:51;9.90;86.60
6865;DHT22;3471;49.678;8.388;2023-04-03T17:38:17;9.80;84.50
6865;DHT22;3471;49.678;8.388;2023-04-03T17:40:43;9.80;90.10
6865;DHT22;3471;49.678;8.388;2023-04-03T17:43:10;9.70;86.20
6865;DHT22;3471;49.678;8.388;2023-04-03T17:45:36;9.70;85.30
6865;DHT22;3471;49.678;8.388;2023-04-03T17:48:01;9.60;87.40
6865;DHT22;3471;49.678;8.388;2023-04-03T17:50:27;9.50;85.90
6865;DHT22;3471;49.678;8.388;2023-04-03T17:52:54;9.40;86.60
6865;DHT22;3471;49.678;8.388;2023-04-03T17:55:20;9.40;91.00
6865;DHT22;3471;49.678;8.388;2023-04-03T17:57:45;9.30;90.60
6865;DHT22;3471;49.678;8.388;2023-04-03T18:00:11;9.20;89.20
6865;DHT22;3471;49.678;8.388;2023-04-03T18:02:37;9.10;92.90
6865;DHT22;3471;49.678;8.388;2023-04-03T18:05:03;9.00;89.20
6865;DHT22;3471;49.678;8.388;2023-04-03T18:07:30;8.90;90.00